createdAt,value
2018-01-13T00:02:24.519Z,40.15
2018-01-13T00:04:52.853Z,37.95
2018-01-13T00:07:20.522Z,34.13
2018-01-13T00:09:48.101Z,33.75
2018-01-13T00:12:15.694Z,37.50
2018-01-13T00:14:44.108Z,39.65
2018-01-13T00:17:11.735Z,32.80
2018-01-13T00:19:40.098Z,43.50
2018-01-13T00:22:07.748Z,31.20
2018-01-13T00:24:35.363Z,41.37
2018-01-13T00:27:02.958Z,38.53
2018-01-13T00:29:30.594Z,36.40
2018-01-13T00:31:58.239Z,36.78
2018-01-13T00:34:25.859Z,32.75
2018-01-13T00:36:53.454Z,37.03
2018-01-13T00:39:21.022Z,38.30
2018-01-13T00:41:48.699Z,33.00
2018-01-13T00:44:16.266Z,33.78
2018-01-13T00:46:43.850Z,30.23
2018-01-13T00:49:11.446Z,29.58
2018-01-13T00:51:39.015Z,26.20
2018-01-13T00:54:06.617Z,34.60
2018-01-13T00:56:34.191Z,33.53
2018-01-13T00:59:02.578Z,34.63
2018-01-13T01:01:31.078Z,35.28
2018-01-13T01:03:58.649Z,31.75
2018-01-13T01:06:26.302Z,37.00
2018-01-13T01:08:53.926Z,35.92
2018-01-13T01:11:22.261Z,31.67
2018-01-13T01:13:50.018Z,37.50
2018-01-13T01:16:17.612Z,37.90
2018-01-13T01:18:45.230Z,32.03
2018-01-13T01:21:12.806Z,39.22
2018-01-13T01:23:40.382Z,32.73
2018-01-13T01:26:08.013Z,34.80
2018-01-13T01:28:35.590Z,37.38
2018-01-13T01:31:03.160Z,39.42
2018-01-13T01:33:31.615Z,42.53
2018-01-13T01:35:59.186Z,33.15
2018-01-13T01:38:26.782Z,36.93
2018-01-13T01:40:55.150Z,37.83
2018-01-13T01:43:23.482Z,40.60
2018-01-13T01:45:51.086Z,32.30
2018-01-13T01:48:25.390Z,35.47
2018-01-13T01:50:52.993Z,37.45
2018-01-13T01:53:20.683Z,33.53
2018-01-13T01:55:48.263Z,34.83
2018-01-13T01:58:15.942Z,35.57
2018-01-13T02:00:43.538Z,34.20
2018-01-13T02:03:11.192Z,35.30
2018-01-13T02:05:38.802Z,31.77
2018-01-13T02:08:06.466Z,35.27
2018-01-13T02:10:34.079Z,25.50
2018-01-13T02:13:01.644Z,27.87
2018-01-13T02:15:29.466Z,27.13
2018-01-13T02:17:57.826Z,29.10
2018-01-13T02:20:25.401Z,32.08
2018-01-13T02:22:53.778Z,30.67
2018-01-13T02:25:21.366Z,30.15
2018-01-13T02:27:48.957Z,33.45
2018-01-13T02:30:16.522Z,22.25
2018-01-13T02:32:44.119Z,23.40
2018-01-13T02:35:12.536Z,22.25
2018-01-13T02:37:40.138Z,26.48
2018-01-13T02:40:07.971Z,23.70
2018-01-13T02:42:35.642Z,28.45
2018-01-13T02:45:03.281Z,26.85
2018-01-13T02:47:30.945Z,27.90
2018-01-13T02:49:58.519Z,25.95
2018-01-13T02:52:26.114Z,25.65
2018-01-13T02:54:53.719Z,24.17
2018-01-13T02:57:21.326Z,24.05
2018-01-13T02:59:49.782Z,27.20
2018-01-13T03:02:17.401Z,27.13
2018-01-13T03:04:44.999Z,22.62
2018-01-13T03:07:12.581Z,29.33
2018-01-13T03:09:40.190Z,25.05
2018-01-13T03:12:07.778Z,20.90
2018-01-13T03:14:35.382Z,21.25
2018-01-13T03:17:03.731Z,20.88
2018-01-13T03:19:31.298Z,21.33
2018-01-13T03:21:58.966Z,21.30
2018-01-13T03:24:27.339Z,26.02
2018-01-13T03:26:55.818Z,23.02
2018-01-13T03:29:23.381Z,21.12
2018-01-13T03:31:51.764Z,27.35
2018-01-13T03:34:20.123Z,24.67
2018-01-13T03:36:47.726Z,25.40
2018-01-13T03:39:15.297Z,23.58
2018-01-13T03:41:42.863Z,24.00
2018-01-13T03:44:10.449Z,20.92
2018-01-13T03:46:38.035Z,22.02
2018-01-13T03:49:06.402Z,20.88
2018-01-13T03:51:33.975Z,23.15
2018-01-13T03:54:02.321Z,23.15
2018-01-13T03:56:29.954Z,22.02
2018-01-13T03:58:57.519Z,17.90
2018-01-13T04:01:25.083Z,12.40
2018-01-13T04:03:52.676Z,24.60
2018-01-13T04:06:20.245Z,20.15
2018-01-13T04:08:48.620Z,21.77
2018-01-13T04:11:16.950Z,20.45
2018-01-13T04:13:44.542Z,23.02
2018-01-13T04:16:12.118Z,17.12
2018-01-13T04:18:40.442Z,18.35
2018-01-13T04:21:08.034Z,23.33
2018-01-13T04:23:35.610Z,25.05
2018-01-13T04:26:03.988Z,20.95
2018-01-13T04:28:32.315Z,18.37
2018-01-13T04:30:59.901Z,23.67
2018-01-13T04:33:27.515Z,20.90
2018-01-13T04:35:55.178Z,22.95
2018-01-13T04:38:22.770Z,22.52
2018-01-13T04:40:50.358Z,20.15
2018-01-13T04:43:18.694Z,21.80
2018-01-13T04:45:46.297Z,21.20
2018-01-13T04:48:14.637Z,22.80
2018-01-13T04:50:42.259Z,25.15
2018-01-13T04:53:09.827Z,21.92
2018-01-13T04:55:37.446Z,25.23
2018-01-13T04:58:05.986Z,25.47
2018-01-13T05:00:33.558Z,24.30
2018-01-13T05:03:01.168Z,24.60
2018-01-13T05:05:28.753Z,29.40
2018-01-13T05:07:56.322Z,28.52
2018-01-13T05:10:23.920Z,29.23
2018-01-13T05:12:52.255Z,27.05
2018-01-13T05:15:19.869Z,26.60
2018-01-13T05:17:48.210Z,25.30
2018-01-13T05:20:15.825Z,25.27
2018-01-13T05:22:43.390Z,29.87
2018-01-13T05:25:10.946Z,33.13
2018-01-13T05:27:38.579Z,30.65
2018-01-13T05:30:06.149Z,28.30
2018-01-13T05:32:33.734Z,31.40
2018-01-13T05:35:01.314Z,29.90
2018-01-13T05:37:29.111Z,28.17
2018-01-13T05:39:57.609Z,29.35
2018-01-13T05:42:25.266Z,31.30
2018-01-13T05:44:53.651Z,28.92
2018-01-13T05:47:21.228Z,31.50
2018-01-13T05:49:48.826Z,32.97
2018-01-13T05:52:16.411Z,37.33
2018-01-13T05:54:44.946Z,29.67
2018-01-13T05:57:12.618Z,34.73
2018-01-13T05:59:40.179Z,33.50
2018-01-13T06:02:07.787Z,33.20
2018-01-13T06:04:35.358Z,34.50
2018-01-13T06:07:02.942Z,29.85
2018-01-13T06:09:30.534Z,36.80
2018-01-13T06:11:58.161Z,36.50
2018-01-13T06:14:25.734Z,33.57
2018-01-13T06:16:53.302Z,30.87
2018-01-13T06:19:20.907Z,28.80
2018-01-13T06:21:48.578Z,35.17
2018-01-13T06:24:16.175Z,32.88
2018-01-13T06:26:43.740Z,36.70
2018-01-13T06:29:11.334Z,33.00
2018-01-13T06:31:38.944Z,32.42
2018-01-13T06:34:06.498Z,31.77
2018-01-13T06:36:34.101Z,36.63
2018-01-13T06:39:02.474Z,28.65
2018-01-13T06:41:30.863Z,29.23
2018-01-13T06:43:58.427Z,31.20
2018-01-13T06:46:25.989Z,30.80
2018-01-13T06:48:53.720Z,29.70
2018-01-13T06:51:21.280Z,28.38
2018-01-13T06:53:48.875Z,27.17
2018-01-13T06:56:16.462Z,28.70
2018-01-13T06:58:44.039Z,29.25
2018-01-13T07:01:11.630Z,27.80
2018-01-13T07:03:39.958Z,28.27
2018-01-13T07:06:07.661Z,23.80
2018-01-13T07:08:36.026Z,26.83
2018-01-13T07:11:03.654Z,25.35
2018-01-13T07:13:31.378Z,29.98
2018-01-13T07:15:59.023Z,25.35
2018-01-13T07:18:27.407Z,27.45
2018-01-13T07:20:55.922Z,22.20
2018-01-13T07:23:23.562Z,27.90
2018-01-13T07:25:51.170Z,26.55
2018-01-13T07:28:19.566Z,25.17
2018-01-13T07:30:47.171Z,26.83
2018-01-13T07:33:14.747Z,26.75
2018-01-13T07:35:42.363Z,27.52
2018-01-13T07:38:09.935Z,27.83
2018-01-13T07:40:37.542Z,29.73
2018-01-13T07:43:05.243Z,32.47
2018-01-13T07:45:33.582Z,26.17
2018-01-13T07:48:01.250Z,30.10
2018-01-13T07:50:28.846Z,26.77
2018-01-13T07:52:56.612Z,28.33
2018-01-13T07:55:24.189Z,25.73
2018-01-13T07:57:51.942Z,26.80
2018-01-13T08:00:19.659Z,27.50
2018-01-13T08:02:48.014Z,25.05
2018-01-13T08:05:15.605Z,25.85
2018-01-13T08:07:43.177Z,27.65
2018-01-13T08:10:11.767Z,27.92
2018-01-13T08:12:40.234Z,27.80
2018-01-13T08:15:08.754Z,27.98
2018-01-13T08:17:36.430Z,29.02
2018-01-13T08:20:04.127Z,29.73
2018-01-13T08:22:31.724Z,26.58
2018-01-13T08:24:59.301Z,27.33
2018-01-13T08:27:26.920Z,26.92
2018-01-13T08:29:55.350Z,31.90
2018-01-13T08:32:22.938Z,30.00
2018-01-13T08:34:50.545Z,29.10
2018-01-13T08:37:18.154Z,33.13
2018-01-13T08:39:47.245Z,33.97
2018-01-13T08:42:14.840Z,27.23
2018-01-13T08:44:42.474Z,29.37
2018-01-13T08:47:10.835Z,32.65
2018-01-13T08:49:39.917Z,33.45
2018-01-13T08:52:07.551Z,28.60
2018-01-13T08:54:35.178Z,33.42
2018-01-13T08:57:03.602Z,38.45
2018-01-13T08:59:31.202Z,33.35
2018-01-13T09:02:01.568Z,32.37
2018-01-13T09:04:29.150Z,38.38
2018-01-13T09:06:56.754Z,32.05
2018-01-13T09:09:25.091Z,32.35
2018-01-13T09:11:52.695Z,32.50
2018-01-13T09:14:21.061Z,32.63
2018-01-13T09:16:49.402Z,32.60
2018-01-13T09:19:17.178Z,33.45
2018-01-13T09:21:44.754Z,37.15
2018-01-13T09:24:12.393Z,34.30
2018-01-13T09:26:40.005Z,31.35
2018-01-13T09:29:07.680Z,38.33
2018-01-13T09:31:35.246Z,34.10
2018-01-13T09:34:03.115Z,31.37
2018-01-13T09:36:30.868Z,30.48
2018-01-13T09:38:58.467Z,31.27
2018-01-13T09:41:26.042Z,32.78
2018-01-13T09:43:53.659Z,30.95
2018-01-13T09:46:21.231Z,31.92
2018-01-13T09:48:49.601Z,36.33
2018-01-13T09:51:17.198Z,40.78
2018-01-13T09:53:45.591Z,37.22
2018-01-13T09:56:13.918Z,30.52
2018-01-13T09:58:41.691Z,31.45
2018-01-13T10:01:09.294Z,34.10
2018-01-13T10:03:36.940Z,35.22
2018-01-13T10:06:05.357Z,29.27
2018-01-13T10:08:32.928Z,40.08
2018-01-13T10:11:00.638Z,33.90
2018-01-13T10:13:29.006Z,46.67
2018-01-13T10:15:56.721Z,33.27
2018-01-13T10:18:24.346Z,30.27
2018-01-13T10:20:51.922Z,32.50
2018-01-13T10:23:19.664Z,38.20
2018-01-13T10:25:48.139Z,36.65
2018-01-13T10:28:16.658Z,33.43
2018-01-13T10:30:44.199Z,33.20
2018-01-13T10:33:11.775Z,37.85
2018-01-13T10:35:40.362Z,36.07
2018-01-13T10:38:07.938Z,39.05
2018-01-13T10:40:35.503Z,35.00
2018-01-13T10:43:03.098Z,33.77
2018-01-13T10:45:31.634Z,30.83
2018-01-13T10:47:59.226Z,43.90
2018-01-13T10:50:27.574Z,39.37
2018-01-13T10:52:55.175Z,35.47
2018-01-13T10:55:23.506Z,34.57
2018-01-13T10:57:51.106Z,37.78
2018-01-13T11:00:19.553Z,36.33
2018-01-13T11:02:47.125Z,35.13
2018-01-13T11:05:16.246Z,38.43
2018-01-13T11:07:44.618Z,34.13
2018-01-13T11:10:12.971Z,34.77
2018-01-13T11:12:40.550Z,34.50
2018-01-13T11:15:08.878Z,35.23
2018-01-13T11:17:36.499Z,33.67
2018-01-13T11:20:04.923Z,38.30
2018-01-13T11:22:32.544Z,33.97
2018-01-13T11:25:00.174Z,40.00
2018-01-13T11:27:27.758Z,35.00
2018-01-13T11:29:55.375Z,39.30
2018-01-13T11:32:22.945Z,34.27
2018-01-13T11:34:50.522Z,40.43
2018-01-13T11:37:18.935Z,36.27
2018-01-13T11:39:46.563Z,25.52
2018-01-13T11:42:14.944Z,20.62
2018-01-13T11:44:43.281Z,29.60
2018-01-13T11:47:10.910Z,30.73
2018-01-13T11:49:38.494Z,33.30
2018-01-13T11:52:06.058Z,30.83
2018-01-13T11:54:33.659Z,32.70
2018-01-13T11:57:02.027Z,25.90
2018-01-13T11:59:30.422Z,22.23
2018-01-13T12:01:58.041Z,23.00
2018-01-13T12:04:26.402Z,24.00
2018-01-13T12:06:53.994Z,24.40
2018-01-13T12:09:22.410Z,24.63
2018-01-13T12:11:50.142Z,24.93
2018-01-13T12:14:18.486Z,24.13
2018-01-13T12:16:46.177Z,20.05
2018-01-13T12:19:14.649Z,19.23
2018-01-13T12:21:42.990Z,19.80
2018-01-13T12:24:10.602Z,22.70
2018-01-13T12:26:38.955Z,22.60
2018-01-13T12:29:06.615Z,22.60
2018-01-13T12:31:34.186Z,25.50
2018-01-13T12:34:02.527Z,21.60
2018-01-13T12:36:30.130Z,20.37
2018-01-13T12:38:57.948Z,19.60
2018-01-13T12:41:25.543Z,20.10
2018-01-13T12:43:53.910Z,19.43
2018-01-13T12:46:21.490Z,23.87
2018-01-13T12:48:49.866Z,22.13
2018-01-13T12:51:18.334Z,22.20
2018-01-13T12:53:45.987Z,18.97
2018-01-13T12:56:13.670Z,23.40
2018-01-13T12:58:42.015Z,23.58
2018-01-13T13:01:09.631Z,29.97
2018-01-13T13:03:37.222Z,23.83
2018-01-13T13:06:04.813Z,24.83
2018-01-13T13:08:32.551Z,22.10
2018-01-13T13:11:00.142Z,23.07
2018-01-13T13:13:28.607Z,22.53
2018-01-13T13:15:57.038Z,25.43
2018-01-13T13:18:24.698Z,22.53
2018-01-13T13:20:52.293Z,21.90
2018-01-13T13:23:20.034Z,25.42
2018-01-13T13:25:47.630Z,14.43
2018-01-13T13:28:15.990Z,25.02
2018-01-13T13:30:43.605Z,20.03
2018-01-13T13:33:11.181Z,25.77
2018-01-13T13:35:38.824Z,24.90
2018-01-13T13:38:06.494Z,24.67
2018-01-13T13:40:34.079Z,29.83
2018-01-13T13:43:01.671Z,19.00
2018-01-13T13:45:30.196Z,29.17
2018-01-13T13:47:57.834Z,27.05
2018-01-13T13:50:25.391Z,23.90
2018-01-13T13:52:52.959Z,24.63
2018-01-13T13:55:20.558Z,27.90
2018-01-13T13:57:48.199Z,27.37
2018-01-13T14:00:15.817Z,20.87
2018-01-13T14:02:44.158Z,26.27
2018-01-13T14:05:11.750Z,24.90
2018-01-13T14:07:40.266Z,27.77
2018-01-13T14:10:07.916Z,25.40
2018-01-13T14:12:35.497Z,31.20
2018-01-13T14:15:03.099Z,28.33
2018-01-13T14:17:31.582Z,24.50
2018-01-13T14:19:59.938Z,22.90
2018-01-13T14:22:27.550Z,25.25
2018-01-13T14:24:55.350Z,24.95
2018-01-13T14:27:22.939Z,19.40
2018-01-13T14:29:51.345Z,26.02
2018-01-13T14:32:19.015Z,26.90
2018-01-13T14:34:46.770Z,21.47
2018-01-13T14:37:14.439Z,25.83
2018-01-13T14:39:42.006Z,24.73
2018-01-13T14:42:09.618Z,28.98
2018-01-13T14:44:37.982Z,27.70
2018-01-13T14:47:06.346Z,25.62
2018-01-13T14:49:33.948Z,31.83
2018-01-13T14:52:01.547Z,28.20
2018-01-13T14:54:29.122Z,24.87
2018-01-13T14:56:56.862Z,25.53
2018-01-13T14:59:24.566Z,25.87
2018-01-13T15:01:52.911Z,23.83
2018-01-13T15:04:20.530Z,31.20
2018-01-13T15:06:48.102Z,18.53
2018-01-13T15:09:15.710Z,31.47
2018-01-13T15:11:43.383Z,30.03
2018-01-13T15:14:11.761Z,30.37
2018-01-13T15:16:40.134Z,32.23
2018-01-13T15:19:08.470Z,22.25
2018-01-13T15:21:36.060Z,23.07
2018-01-13T15:24:04.439Z,32.65
2018-01-13T15:26:32.055Z,34.17
2018-01-13T15:28:59.762Z,34.90
2018-01-13T15:31:27.322Z,33.93
2018-01-13T15:33:55.682Z,28.90
2018-01-13T15:36:23.254Z,29.27
2018-01-13T15:38:50.899Z,30.37
2018-01-13T15:41:18.494Z,33.67
2018-01-13T15:43:46.066Z,32.08
2018-01-13T15:46:13.668Z,28.43
2018-01-13T15:48:41.365Z,32.50
2018-01-13T15:51:09.851Z,33.80
2018-01-13T15:53:38.186Z,31.13
2018-01-13T15:56:05.777Z,29.48
2018-01-13T15:58:34.142Z,38.45
2018-01-13T16:01:02.551Z,31.23
2018-01-13T16:03:30.174Z,26.40
2018-01-13T16:05:57.742Z,29.52
2018-01-13T16:08:26.094Z,36.13
2018-01-13T16:10:53.703Z,31.52
2018-01-13T16:13:21.393Z,35.88
2018-01-13T16:15:48.964Z,31.85
2018-01-13T16:18:16.575Z,32.63
2018-01-13T16:20:44.963Z,36.35
2018-01-13T16:23:12.687Z,30.88
2018-01-13T16:25:40.261Z,29.27
2018-01-13T16:28:08.627Z,27.50
2018-01-13T16:30:36.214Z,27.83
2018-01-13T16:33:03.907Z,34.83
2018-01-13T16:35:31.588Z,28.15
2018-01-13T16:37:59.193Z,32.77
2018-01-13T16:40:26.763Z,22.60
2018-01-13T16:42:54.386Z,39.53
2018-01-13T16:45:21.959Z,33.57
2018-01-13T16:47:50.325Z,33.75
2018-01-13T16:50:17.950Z,42.37
2018-01-13T16:52:45.542Z,32.60
2018-01-13T16:55:13.938Z,34.28
2018-01-13T16:57:42.528Z,29.77
2018-01-13T17:00:11.025Z,33.23
2018-01-13T17:02:39.351Z,30.60
2018-01-13T17:05:07.218Z,30.50
2018-01-13T17:07:34.855Z,34.80
2018-01-13T17:10:02.455Z,31.20
2018-01-13T17:12:30.858Z,30.25
2018-01-13T17:14:58.482Z,30.02
2018-01-13T17:17:26.062Z,29.07
2018-01-13T17:19:54.434Z,30.98
2018-01-13T17:22:22.026Z,32.53
2018-01-13T17:24:49.602Z,29.75
2018-01-13T17:27:17.206Z,29.55
2018-01-13T17:29:45.558Z,30.37
2018-01-13T17:32:13.183Z,30.83
2018-01-13T17:34:40.906Z,32.25
2018-01-13T17:37:09.299Z,28.90
2018-01-13T17:39:37.717Z,24.60
2018-01-13T17:42:05.290Z,32.03
2018-01-13T17:44:32.882Z,31.70
2018-01-13T17:47:01.235Z,34.80
2018-01-13T17:49:28.847Z,31.37
2018-01-13T17:51:56.422Z,27.33
2018-01-13T17:54:24.033Z,33.55
2018-01-13T17:56:52.384Z,32.40
2018-01-13T17:59:19.963Z,32.13
2018-01-13T18:01:48.355Z,26.73
2018-01-13T18:04:16.714Z,28.92
2018-01-13T18:06:45.070Z,29.30
2018-01-13T18:09:12.689Z,28.90
2018-01-13T18:11:40.297Z,27.03
2018-01-13T18:14:07.875Z,31.23
2018-01-13T18:16:36.246Z,14.80
2018-01-13T18:19:03.873Z,24.67
2018-01-13T18:21:31.447Z,27.25
2018-01-13T18:23:59.070Z,27.77
2018-01-13T18:26:26.750Z,28.40
2018-01-13T18:28:54.324Z,25.70
2018-01-13T18:31:21.939Z,26.60
2018-01-13T18:33:49.821Z,22.90
2018-01-13T18:36:17.402Z,27.40
2018-01-13T18:38:45.006Z,27.27
2018-01-13T18:41:13.402Z,24.17
2018-01-13T18:43:41.066Z,25.43
2018-01-13T18:46:08.681Z,21.53
2018-01-13T18:48:36.254Z,18.90
2018-01-13T18:51:03.835Z,29.60
2018-01-13T18:53:31.454Z,25.88
2018-01-13T18:55:59.046Z,27.57
2018-01-13T18:58:26.622Z,23.63
2018-01-13T19:00:54.235Z,25.50
2018-01-13T19:03:21.836Z,27.37
2018-01-13T19:05:49.434Z,22.20
2018-01-13T19:08:17.035Z,22.93
2018-01-13T19:10:45.432Z,23.52
2018-01-13T19:13:13.013Z,29.65
2018-01-13T19:15:40.586Z,28.67
2018-01-13T19:18:08.194Z,26.40
2018-01-13T19:20:35.803Z,28.77
2018-01-13T19:23:04.264Z,32.00
2018-01-13T19:25:31.839Z,22.33
2018-01-13T19:27:59.442Z,31.73
2018-01-13T19:30:27.782Z,32.10
2018-01-13T19:32:56.935Z,28.73
2018-01-13T19:35:24.522Z,30.73
2018-01-13T19:37:52.123Z,29.33
2018-01-13T19:40:20.494Z,26.62
2018-01-13T19:42:48.837Z,28.48
2018-01-13T19:45:16.446Z,30.90
2018-01-13T19:47:44.812Z,29.52
2018-01-13T19:50:13.435Z,24.80
2018-01-13T19:52:41.097Z,22.10
2018-01-13T19:55:08.669Z,27.45
2018-01-13T19:57:36.293Z,31.20
2018-01-13T20:00:03.875Z,27.75
2018-01-13T20:02:31.498Z,25.50
2018-01-13T20:04:59.842Z,27.92
2018-01-13T20:07:27.408Z,14.75
2018-01-13T20:09:55.043Z,31.60
2018-01-13T20:12:22.615Z,25.23
2018-01-13T20:14:50.248Z,24.37
2018-01-13T20:17:17.843Z,30.08
2018-01-13T20:19:45.419Z,29.10
2018-01-13T20:22:13.958Z,24.60
2018-01-13T20:24:41.537Z,22.77
2018-01-13T20:27:09.156Z,25.98
2018-01-13T20:29:36.740Z,20.25
2018-01-13T20:32:04.326Z,28.08
2018-01-13T20:34:31.941Z,23.50
2018-01-13T20:36:59.542Z,28.48
2018-01-13T20:39:27.166Z,25.35
2018-01-13T20:41:54.743Z,26.08
2018-01-13T20:44:22.334Z,26.30
2018-01-13T20:46:50.817Z,26.02
2018-01-13T20:49:19.366Z,26.33
2018-01-13T20:51:46.970Z,29.02
2018-01-13T20:54:14.542Z,30.83
2018-01-13T20:56:42.153Z,33.92
2018-01-13T20:59:09.842Z,36.60
2018-01-13T21:01:38.213Z,31.30
2018-01-13T21:04:06.566Z,30.17
2018-01-13T21:06:34.220Z,28.65
2018-01-13T21:09:01.826Z,27.60
2018-01-13T21:11:29.454Z,28.30
2018-01-13T21:13:57.026Z,29.77
2018-01-13T21:16:25.455Z,28.38
2018-01-13T21:18:53.131Z,35.08
2018-01-13T21:21:20.715Z,23.98
2018-01-13T21:23:48.342Z,29.30
2018-01-13T21:26:15.927Z,33.75
2018-01-13T21:28:43.494Z,26.42
2018-01-13T21:31:11.119Z,28.80
2018-01-13T21:33:38.682Z,20.60
2018-01-13T21:36:06.275Z,24.17
2018-01-13T21:38:34.792Z,20.40
2018-01-13T21:41:02.518Z,28.70
2018-01-13T21:43:30.871Z,14.98
2018-01-13T21:45:58.468Z,23.00
2018-01-13T21:48:26.849Z,20.33
2018-01-13T21:50:54.423Z,21.12
2018-01-13T21:53:22.042Z,23.10
2018-01-13T21:55:49.723Z,9.63
2018-01-13T21:58:18.078Z,24.40
2018-01-13T22:00:45.686Z,23.35
2018-01-13T22:03:13.447Z,20.62
2018-01-13T22:05:41.207Z,26.50
2018-01-13T22:08:08.830Z,7.15
2018-01-13T22:10:36.442Z,20.27
2018-01-13T22:13:04.055Z,22.00
2018-01-13T22:15:32.475Z,15.45
2018-01-13T22:18:00.190Z,11.73
2018-01-13T22:20:28.558Z,19.95
2018-01-13T22:22:56.123Z,18.48
2018-01-13T22:25:24.579Z,14.30
2018-01-13T22:27:52.308Z,19.23
2018-01-13T22:30:19.918Z,18.60
2018-01-13T22:32:47.522Z,22.13
2018-01-13T22:35:15.123Z,22.75
2018-01-13T22:37:42.709Z,18.48
2018-01-13T22:40:11.191Z,23.87
2018-01-13T22:42:39.666Z,23.45
2018-01-13T22:45:08.011Z,22.95
2018-01-13T22:47:35.667Z,20.52
2018-01-13T22:50:03.275Z,21.30
2018-01-13T22:52:31.884Z,22.73
2018-01-13T22:54:59.486Z,18.95
2018-01-13T22:57:27.050Z,25.35
2018-01-13T22:59:54.678Z,25.33
2018-01-13T23:02:22.298Z,24.52
2018-01-13T23:04:49.979Z,25.10
2018-01-13T23:07:17.582Z,24.17
2018-01-13T23:09:45.154Z,19.42
2018-01-13T23:12:13.535Z,25.35
2018-01-13T23:14:41.890Z,25.40
2018-01-13T23:17:09.454Z,31.12
2018-01-13T23:19:37.060Z,29.05
2018-01-13T23:22:04.617Z,30.27
2018-01-13T23:24:32.295Z,27.75
2018-01-13T23:27:00.145Z,27.15
2018-01-13T23:29:27.755Z,26.45
2018-01-13T23:31:55.379Z,29.30
2018-01-13T23:34:23.677Z,30.70
2018-01-13T23:36:51.420Z,31.52
2018-01-13T23:39:19.039Z,32.47
2018-01-13T23:41:47.445Z,26.60
2018-01-13T23:44:15.950Z,25.95
2018-01-13T23:46:43.767Z,32.63
2018-01-13T23:49:12.159Z,20.17
2018-01-13T23:51:39.730Z,28.42
2018-01-13T23:54:07.362Z,28.60
2018-01-13T23:56:35.894Z,33.78
2018-01-13T23:59:03.491Z,26.30
